ADDS METAR Data INFO
IDs: Format: Raw Decoded Include TAF

Data at: 0752 UTC 24 May 2018

KERV 240735Z AUTO 09004KT 10SM BKN014 OVC022 22/19 A3009 RMK AO2 T02200192
KERV 240715Z AUTO 09004KT 10SM SCT016 BKN022 22/19 A3009 RMK AO2 T02200190
KERV 240655Z AUTO 10004KT 10SM OVC018 22/19 A3009 RMK AO2 T02220191
KERV 240635Z AUTO 11003KT 10SM OVC016 23/19 A3010 RMK AO2 T02260193
KERV 240615Z AUTO 12005KT 10SM BKN018 23/19 A3009 RMK AO2 T02250191
KERV 240555Z AUTO 11004KT 10SM SCT020 22/19 A3009 RMK AO2 T02200186 10301 20220 403170205
KERV 240535Z AUTO 11004KT 10SM CLR 22/19 A3009 RMK AO2 T02200186
KERV 240515Z AUTO 12004KT 10SM CLR 22/19 A3009 RMK AO2 T02220188
KERV 240455Z AUTO 12004KT 10SM CLR 23/19 A3009 RMK AO2 T02260190
KERV 240435Z AUTO 12004KT 10SM CLR 23/20 A3008 RMK AO2 T02330195
KERV 240415Z AUTO 12004KT 10SM CLR 23/19 A3008 RMK AO2 T02330194
KERV 240355Z AUTO 12004KT 10SM CLR 23/20 A3007 RMK AO2 T02330195
KERV 240335Z AUTO 12004KT 10SM CLR 23/19 A3006 RMK AO2 T02330193
KERV 240315Z AUTO 11005KT 10SM CLR 25/20 A3005 RMK AO2 T02470200
KERV 240255Z AUTO 13006KT 10SM CLR 25/20 A3005 RMK AO2 T02470199
KERV 240235Z AUTO 12007KT 10SM CLR 25/20 A3003 RMK AO2 T02470195
KERV 240215Z AUTO 13008KT 10SM CLR 26/20 A3003 RMK AO2 T02550198
KERV 240155Z AUTO 12010KT 10SM CLR 26/20 A3001 RMK AO2 T02610196
KERV 240135Z AUTO 11009G15KT 10SM CLR 27/16 A3000 RMK AO2 T02660163
KERV 240115Z AUTO 14005KT 10SM CLR 28/16 A2999 RMK AO2 T02750161
KERV 240055Z AUTO 13006KT 10SM CLR 28/16 A2998 RMK AO2 T02820163
KERV 240035Z AUTO 14006KT 10SM CLR 29/16 A2998 RMK AO2 T02900161
KERV 240015Z AUTO 14011KT 10SM CLR 29/16 A2998 RMK AO2 T02940155
KERV 232355Z AUTO 11009KT 10SM SCT065 30/15 A2998 RMK AO2 T02990149 10317 20283
KERV 232335Z AUTO 11005KT 10SM SCT065 29/15 A2998 RMK AO2 T02910152
KERV 232315Z AUTO 13011KT 10SM SCT075 32/16 A2998 RMK AO2 T03170162
KERV 232255Z AUTO 11010KT 10SM CLR 32/16 A2998 RMK AO2 T03170156
KERV 232235Z AUTO 12007KT 10SM SCT060 31/16 A2999 RMK AO2 T03050159
KERV 232215Z AUTO 15007KT 10SM CLR 32/17 A2999 RMK AO2 T03160165
KERV 232155Z AUTO 13006KT 10SM SCT060 32/16 A3000 RMK AO2 T03170163
KERV 232135Z AUTO 18004KT 10SM CLR 31/17 A3001 RMK AO2 T03120166
KERV 232115Z AUTO 13009G15KT 10SM SCT050 SCT070 32/18 A3001 RMK AO2 T03170179
KERV 232055Z AUTO 13005G08KT 10SM SCT050 BKN070 31/18 A3002 RMK AO2 T03100178
KERV 232035Z AUTO 19005KT 10SM CLR 31/18 A3002 RMK AO2 T03130175
KERV 232015Z AUTO 00000KT 10SM CLR 30/17 A3002 RMK AO2 T02960174
KERV 231955Z AUTO 16009KT 10SM SCT050 SCT060 SCT080 30/18 A3003 RMK AO2 T03030178
KERV 231935Z AUTO 16006KT 10SM BKN050 BKN070 OVC080 29/17 A3004 RMK AO2 T02880174
KERV 231915Z AUTO 16006KT 10SM BKN050 BKN060 BKN070 29/17 A3005 RMK AO2 LTG DSNT SE T02910174
KERV 231855Z AUTO 13009KT 10SM SCT048 BKN065 29/18 A3005 RMK AO2 T02930175
KERV 231835Z AUTO 12003KT 10SM SCT048 BKN065 29/17 A3005 RMK AO2 T02890173
KERV 231815Z AUTO 15007KT 10SM SCT046 SCT050 29/18 A3006 RMK AO2 T02910177
KERV 231755Z AUTO 17008G15KT 10SM SCT041 SCT050 29/18 A3006 RMK AO2 T02900175 10290 20214
KERV 231735Z AUTO 18010G14KT 10SM SCT037 SCT045 BKN050 28/18 A3007 RMK AO2 T02790183
KERV 231715Z AUTO 18008KT 10SM SCT037 BKN049 28/19 A3008 RMK AO2 T02820188
KERV 231655Z AUTO 16008KT 10SM SCT035 SCT043 BKN049 26/18 A3008 RMK AO2 T02630182
KERV 231635Z AUTO 17011G15KT 10SM BKN035 BKN047 28/19 A3008 RMK AO2 T02750191
KERV 231615Z AUTO 14011G15KT 10SM SCT047 26/18 A3008 RMK AO2 T02620179
KERV 231555Z AUTO 16011KT 10SM SCT041 26/18 A3008 RMK AO2 T02620182
KERV 231535Z AUTO 17010KT 10SM SCT026 SCT031 BKN040 26/20 A3008 RMK AO2 T02610197
KERV 231515Z AUTO 14011G15KT 10SM SCT036 25/19 A3008 RMK AO2 T02500191
KERV 231455Z AUTO 16009KT 10SM SCT032 BKN039 23/19 A3008 RMK AO2 T02280193
KERV 231435Z AUTO 17008KT 10SM BKN030 23/19 A3008 RMK AO2 T02260191
KERV 231415Z AUTO 17008KT 10SM SCT017 BKN027 23/19 A3008 RMK AO2 T02250191
KERV 231355Z AUTO 14011KT 10SM SCT014 BKN020 BKN029 23/20 A3007 RMK AO2 T02320197
KERV 231335Z AUTO 16007KT 10SM BKN012 OVC018 22/19 A3007 RMK AO2 T02200192
KERV 231315Z AUTO 16005KT 10SM BKN014 BKN022 OVC028 22/19 A3006 RMK AO2 T02200191
KERV 231255Z AUTO 16006KT 10SM SCT011 SCT015 BKN028 22/20 A3006 RMK AO2 T02200197
KERV 231235Z AUTO 15006KT 10SM BKN011 BKN015 OVC028 22/20 A3006 RMK AO2 T02200198
KERV 231215Z AUTO 15006KT 10SM SCT011 SCT015 OVC026 22/20 A3005 RMK AO2 T02200198
KERV 231155Z AUTO 16007KT 10SM SCT013 OVC024 22/20 A3004 RMK AO2 T02200198 10220 20205
KERV 231135Z AUTO 17005KT 10SM BKN013 OVC021 22/20 A3003 RMK AO2 T02200198
KERV 231115Z AUTO 16006KT 10SM BKN013 OVC021 22/20 A3002 RMK AO2 T02200198
KERV 231055Z AUTO 15006KT 10SM BKN013 OVC019 22/20 A3002 RMK AO2 T02190198
KERV 231035Z AUTO 15005KT 10SM BKN013 OVC019 22/20 A3002 RMK AO2 T02200198
KERV 231015Z AUTO 15003KT 10SM OVC013 22/20 A3001 RMK AO2 T02190197
KERV 230955Z AUTO 16005KT 10SM OVC015 22/20 A3001 RMK AO2 T02200197
KERV 230935Z AUTO 15006KT 10SM OVC013 22/20 A3001 RMK AO2 T02200197
KERV 230915Z AUTO 15004KT 10SM OVC013 22/20 A3001 RMK AO2 T02200197
KERV 230855Z AUTO 15007KT 10SM OVC013 22/20 A3000 RMK AO2 T02200196
KERV 230835Z AUTO 14007KT 10SM OVC013 22/20 A3001 RMK AO2 T02200197
KERV 230815Z AUTO 15007KT 10SM BKN015 21/19 A3001 RMK AO2 T02050185
KERV 230755Z AUTO 13004KT 10SM CLR 21/18 A3001 RMK AO2 T02050183
KERV 230735Z AUTO 14003KT 10SM CLR 21/19 A3002 RMK AO2 T02100186
KERV 230715Z AUTO 13007KT 10SM CLR 22/19 A3001 RMK AO2 T02200193
KERV 230655Z AUTO 13007KT 10SM CLR 22/19 A3002 RMK AO2 T02200192
KERV 230635Z AUTO 13006KT 10SM CLR 22/19 A3002 RMK AO2 T02200191
KERV 230615Z AUTO 12005KT 10SM CLR 22/19 A3003 RMK AO2 T02200191
KERV 230555Z AUTO 13004KT 10SM CLR 22/19 A3003 RMK AO2 T02200193 10299 20220 403110190
KERV 230535Z AUTO 12005KT 10SM CLR 22/19 A3003 RMK AO2 T02200188
KERV 230515Z AUTO 11005KT 10SM CLR 22/19 A3003 RMK AO2 T02200187
KERV 230455Z AUTO 12005KT 10SM CLR 23/19 A3002 RMK AO2 T02260191
KERV 230435Z AUTO 12006KT 10SM CLR 23/19 A3002 RMK AO2 T02270190
KERV 230415Z AUTO 12006KT 10SM CLR 23/19 A3001 RMK AO2 T02330191
KERV 230355Z AUTO 12006KT 10SM CLR 23/19 A3000 RMK AO2 T02330187
KERV 230335Z AUTO 11006KT 10SM CLR 25/20 A2999 RMK AO2 T02470195
KERV 230315Z AUTO 11007KT 10SM CLR 25/19 A2999 RMK AO2 T02470193
KERV 230255Z AUTO 11007KT 10SM CLR 25/19 A2998 RMK AO2 T02470190
KERV 230240Z AUTO 11004KT 10SM CLR 25/19 A2998 RMK AO2 T02470187
KERV 230215Z AUTO 12005KT 10SM CLR 25/18 A2996 RMK AO2 T02470183
KERV 230155Z AUTO 13006KT 10SM CLR 26/19 A2995 RMK AO2 T02550186
KERV 230135Z AUTO 12006KT 10SM CLR 26/19 A2995 RMK AO2 T02610190
KERV 230115Z AUTO 13009G16KT 10SM SCT048 SCT050 SCT070 27/19 A2995 RMK AO2 T02710192
KERV 230055Z AUTO 13012G16KT 10SM SCT048 BKN055 BKN070 28/19 A2995 RMK AO2 T02760187
KERV 230035Z AUTO 13012G15KT 10SM SCT055 BKN065 BKN085 29/18 A2993 RMK AO2 T02900180
KERV 230015Z AUTO 18011KT 10SM SCT055 SCT065 BKN085 30/17 A2993 RMK AO2 T02960166
KERV 222355Z AUTO 18013KT 10SM BKN055 OVC090 30/17 A2993 RMK AO2 T03000168 10311 20276
KERV 222335Z AUTO 13008KT 10SM BKN055 BKN070 BKN090 30/17 A2993 RMK AO2 T02990172
KERV 222315Z AUTO 14010KT 10SM SCT055 SCT070 29/17 A2993 RMK AO2 T02910169
KERV 222255Z AUTO 16012G15KT 10SM CLR 30/17 A2993 RMK AO2 T03000167
KERV 222235Z AUTO 16013G16KT 10SM SCT090 SCT110 30/17 A2993 RMK AO2 T02980165
KERV 222215Z AUTO 17009KT 10SM SCT055 BKN090 30/16 A2994 RMK AO2 T03010164
KERV 222155Z AUTO 17010G14KT 10SM SCT055 29/16 A2993 RMK AO2 T02900161
KERV 222135Z AUTO 15010G16KT 10SM SCT055 30/17 A2994 RMK AO2 T03010166
KERV 222115Z AUTO 14011G18KT 10SM SCT055 30/17 A2994 RMK AO2 T03030172
KERV 222055Z AUTO 16009KT 10SM SCT070 30/17 A2995 RMK AO2 T02980165
KERV 222035Z AUTO 14005KT 10SM SCT050 BKN065 29/17 A2996 RMK AO2 T02930173
KERV 222015Z AUTO 19008KT 10SM SCT065 30/17 A2996 RMK AO2 T03020170
KERV 221955Z AUTO 14006KT 10SM SCT050 30/17 A2997 RMK AO2 T02990171